createdAt,value
2023-11-12T00:01:15.633Z,7.93
2023-11-12T00:03:42.602Z,7.90
2023-11-12T00:06:09.547Z,7.88
2023-11-12T00:08:36.488Z,7.84
2023-11-12T00:11:03.934Z,7.80
2023-11-12T00:13:31.018Z,7.75
2023-11-12T00:15:58.310Z,7.71
2023-11-12T00:18:25.204Z,7.70
2023-11-12T00:20:52.889Z,7.70
2023-11-12T00:23:22.190Z,7.71
2023-11-12T00:25:49.157Z,7.71
2023-11-12T00:28:16.057Z,7.71
2023-11-12T00:30:42.913Z,7.67
2023-11-12T00:33:10.845Z,7.63
2023-11-12T00:35:38.341Z,7.56
2023-11-12T00:38:05.609Z,7.49
2023-11-12T00:40:33.537Z,7.47
2023-11-12T00:43:00.739Z,7.49
2023-11-12T00:45:27.741Z,7.49
2023-11-12T00:47:56.604Z,7.49
2023-11-12T00:50:23.645Z,7.52
2023-11-12T00:52:50.663Z,7.50
2023-11-12T00:55:17.563Z,7.48
2023-11-12T00:57:45.157Z,7.47
2023-11-12T01:00:12.721Z,7.49
2023-11-12T01:02:39.665Z,7.50
2023-11-12T01:05:07.356Z,7.46
2023-11-12T01:07:34.330Z,7.43
2023-11-12T01:10:01.362Z,7.35
2023-11-12T01:12:28.762Z,7.27
2023-11-12T01:14:55.797Z,7.20
2023-11-12T01:17:22.861Z,7.20
2023-11-12T01:19:49.739Z,7.21
2023-11-12T01:22:17.408Z,7.25
2023-11-12T01:24:44.372Z,7.24
2023-11-12T01:27:11.281Z,7.23
2023-11-12T01:29:38.205Z,7.22
2023-11-12T01:32:05.714Z,7.20
2023-11-12T01:34:32.834Z,7.19
2023-11-12T01:37:00.364Z,7.16
2023-11-12T01:39:28.307Z,7.17
2023-11-12T01:41:55.641Z,7.15
2023-11-12T01:44:22.567Z,7.18
2023-11-12T01:46:52.698Z,7.21
2023-11-12T01:49:21.841Z,7.22
2023-11-12T01:51:51.466Z,7.20
2023-11-12T01:54:18.886Z,7.14
2023-11-12T01:56:46.787Z,7.12
2023-11-12T01:59:15.450Z,7.14
2023-11-12T02:01:43.528Z,7.15
2023-11-12T02:04:11.704Z,7.17
2023-11-12T02:06:38.727Z,7.19
2023-11-12T02:09:06.839Z,7.26
2023-11-12T02:11:33.827Z,7.26
2023-11-12T02:14:01.045Z,7.20
2023-11-12T02:16:28.801Z,7.20
2023-11-12T02:18:56.140Z,7.23
2023-11-12T02:21:25.642Z,7.26
2023-11-12T02:23:52.747Z,7.27
2023-11-12T02:26:20.195Z,7.31
2023-11-12T02:28:47.116Z,7.35
2023-11-12T02:31:14.161Z,7.35
2023-11-12T02:33:41.244Z,7.37
2023-11-12T02:36:09.148Z,7.39
2023-11-12T02:38:36.655Z,7.38
2023-11-12T02:41:03.765Z,7.37
2023-11-12T02:43:30.686Z,7.40
2023-11-12T02:45:58.232Z,7.38
2023-11-12T02:48:27.039Z,7.37
2023-11-12T02:50:54.311Z,7.38
2023-11-12T02:53:21.248Z,7.36
2023-11-12T02:55:48.130Z,7.35
2023-11-12T02:58:18.434Z,7.33
2023-11-12T03:00:45.518Z,7.31
2023-11-12T03:03:14.365Z,7.28
2023-11-12T03:05:41.601Z,7.28
2023-11-12T03:08:08.506Z,7.27
2023-11-12T03:10:36.689Z,7.29
2023-11-12T03:13:03.681Z,7.27
2023-11-12T03:15:30.721Z,7.22
2023-11-12T03:17:58.615Z,7.15
2023-11-12T03:20:25.644Z,7.07
2023-11-12T03:22:52.644Z,7.03
2023-11-12T03:25:19.519Z,7.00
2023-11-12T03:27:46.453Z,7.00
2023-11-12T03:30:14.650Z,7.00
2023-11-12T03:32:41.845Z,7.01
2023-11-12T03:35:09.825Z,7.00
2023-11-12T03:37:37.744Z,6.98
2023-11-12T03:40:05.779Z,6.98
2023-11-12T03:42:33.265Z,7.02
2023-11-12T03:45:00.212Z,7.05
2023-11-12T03:47:27.257Z,7.03
2023-11-12T03:49:54.212Z,7.02
2023-11-12T03:52:21.176Z,6.96
2023-11-12T03:54:48.150Z,6.88
2023-11-12T03:57:15.760Z,6.86
2023-11-12T03:59:42.969Z,6.88
2023-11-12T04:02:10.160Z,6.88
2023-11-12T04:04:37.327Z,6.87
2023-11-12T04:07:06.465Z,6.85
2023-11-12T04:09:33.358Z,6.83
2023-11-12T04:12:00.476Z,6.82
2023-11-12T04:14:27.364Z,6.79
2023-11-12T04:16:54.333Z,6.75
2023-11-12T04:19:21.257Z,6.76
2023-11-12T04:21:48.786Z,6.75
2023-11-12T04:24:16.064Z,6.74
2023-11-12T04:26:43.232Z,6.68
2023-11-12T04:29:10.442Z,6.65
2023-11-12T04:31:37.970Z,6.66
2023-11-12T04:34:05.200Z,6.69
2023-11-12T04:36:36.707Z,6.72
2023-11-12T04:39:04.604Z,6.76
2023-11-12T04:41:31.565Z,6.76
2023-11-12T04:43:58.689Z,6.78
2023-11-12T04:46:26.624Z,6.81
2023-11-12T04:48:53.540Z,6.84
2023-11-12T04:51:21.292Z,6.80
2023-11-12T04:53:49.446Z,6.79
2023-11-12T04:56:16.705Z,6.78
2023-11-12T04:58:43.639Z,6.77
2023-11-12T05:01:10.648Z,6.74
2023-11-12T05:03:37.688Z,6.71
2023-11-12T05:06:05.460Z,6.71
2023-11-12T05:08:32.731Z,6.71
2023-11-12T05:10:59.818Z,6.65
2023-11-12T05:13:27.248Z,6.65
2023-11-12T05:15:54.411Z,6.60
2023-11-12T05:18:22.737Z,6.55
2023-11-12T05:20:49.823Z,6.55
2023-11-12T05:23:17.816Z,6.55
2023-11-12T05:25:46.328Z,6.52
2023-11-12T05:28:13.565Z,6.54
2023-11-12T05:30:40.990Z,6.60
2023-11-12T05:33:07.958Z,6.60
2023-11-12T05:35:34.843Z,6.56
2023-11-12T05:38:01.841Z,6.54
2023-11-12T05:40:30.663Z,6.53
2023-11-12T05:42:59.101Z,6.52
2023-11-12T05:45:26.301Z,6.51
2023-11-12T05:47:53.531Z,6.50
2023-11-12T05:50:20.494Z,6.50
2023-11-12T05:52:48.752Z,6.48
2023-11-12T05:55:16.249Z,6.50
2023-11-12T05:57:43.569Z,6.49
2023-11-12T06:00:12.194Z,6.48
2023-11-12T06:02:39.748Z,6.48
2023-11-12T06:05:07.692Z,6.48
2023-11-12T06:07:34.660Z,6.47
2023-11-12T06:10:01.619Z,6.42
2023-11-12T06:12:28.614Z,6.40
2023-11-12T06:14:55.534Z,6.45
2023-11-12T06:17:22.412Z,6.49
2023-11-12T06:19:49.616Z,6.51
2023-11-12T06:22:16.952Z,6.52
2023-11-12T06:24:44.095Z,6.52
2023-11-12T06:27:12.133Z,6.48
2023-11-12T06:29:39.407Z,6.46
2023-11-12T06:32:08.165Z,6.42
2023-11-12T06:34:36.363Z,6.40
2023-11-12T06:37:04.416Z,6.41
2023-11-12T06:39:32.212Z,6.41
2023-11-12T06:41:59.325Z,6.42
2023-11-12T06:44:26.248Z,6.40
2023-11-12T06:46:53.252Z,6.40
2023-11-12T06:49:20.236Z,6.43
2023-11-12T06:51:47.232Z,6.45
2023-11-12T06:54:14.335Z,6.47
2023-11-12T06:56:41.258Z,6.50
2023-11-12T06:59:08.175Z,6.53
2023-11-12T07:01:35.394Z,6.54
2023-11-12T07:04:02.626Z,6.51
2023-11-12T07:06:29.895Z,6.50
2023-11-12T07:08:56.864Z,6.48
2023-11-12T07:11:23.829Z,6.51
2023-11-12T07:13:50.737Z,6.53
2023-11-12T07:16:19.040Z,6.55
2023-11-12T07:18:53.944Z,6.54
2023-11-12T07:21:28.343Z,6.57
2023-11-12T07:23:56.480Z,6.58
2023-11-12T07:26:25.770Z,6.56
2023-11-12T07:28:53.493Z,6.57
2023-11-12T07:31:23.333Z,6.56
2023-11-12T07:33:50.991Z,6.54
2023-11-12T07:36:18.051Z,6.58
2023-11-12T07:38:46.197Z,6.61
2023-11-12T07:41:13.203Z,6.60
2023-11-12T07:43:40.249Z,6.60
2023-11-12T07:46:07.292Z,6.59
2023-11-12T07:48:34.861Z,6.58
2023-11-12T07:51:02.029Z,6.60
2023-11-12T07:53:29.728Z,6.64
2023-11-12T07:55:56.764Z,6.68
2023-11-12T07:58:23.634Z,6.70
2023-11-12T08:00:50.569Z,6.73
2023-11-12T08:03:17.565Z,6.78
2023-11-12T08:05:44.654Z,6.82
2023-11-12T08:08:11.511Z,6.84
2023-11-12T08:10:38.617Z,6.82
2023-11-12T08:13:05.810Z,6.82
2023-11-12T08:15:32.802Z,6.87
2023-11-12T08:17:59.962Z,6.93
2023-11-12T08:20:27.046Z,6.97
2023-11-12T08:22:53.975Z,7.03
2023-11-12T08:25:20.849Z,7.07
2023-11-12T08:27:48.105Z,7.08
2023-11-12T08:30:15.375Z,7.09
2023-11-12T08:32:43.009Z,7.08
2023-11-12T08:35:10.918Z,7.09
2023-11-12T08:37:38.330Z,7.07
2023-11-12T08:40:06.524Z,7.05
2023-11-12T08:42:33.547Z,7.00
2023-11-12T08:45:01.245Z,6.96
2023-11-12T08:47:28.239Z,6.96
2023-11-12T08:49:55.203Z,6.96
2023-11-12T08:52:23.187Z,6.98
2023-11-12T08:54:52.519Z,6.99
2023-11-12T08:57:19.704Z,7.00
2023-11-12T08:59:47.591Z,7.01
2023-11-12T09:02:14.593Z,6.96
2023-11-12T09:04:41.511Z,6.93
2023-11-12T09:07:08.501Z,6.89
2023-11-12T09:09:35.558Z,6.85
2023-11-12T09:12:02.601Z,6.83
2023-11-12T09:14:29.950Z,6.79
2023-11-12T09:16:57.006Z,6.78
2023-11-12T09:19:23.874Z,6.77
2023-11-12T09:21:51.380Z,6.80
2023-11-12T09:24:18.295Z,6.84
2023-11-12T09:26:46.246Z,6.90
2023-11-12T09:29:13.133Z,6.88
2023-11-12T09:31:39.981Z,6.90
2023-11-12T09:34:07.066Z,6.91
2023-11-12T09:36:35.149Z,6.95
2023-11-12T09:39:04.970Z,6.97
2023-11-12T09:41:35.740Z,7.00
2023-11-12T09:44:05.180Z,7.00
2023-11-12T09:46:32.591Z,7.04
2023-11-12T09:48:59.915Z,7.09
2023-11-12T09:51:28.244Z,7.13
2023-11-12T09:53:56.014Z,7.18
2023-11-12T09:56:26.047Z,7.28
2023-11-12T09:58:54.633Z,7.36
2023-11-12T10:01:21.956Z,7.43
2023-11-12T10:03:50.270Z,7.49
2023-11-12T10:06:22.152Z,7.56
2023-11-12T10:08:51.747Z,7.59
2023-11-12T10:11:27.451Z,7.62
2023-11-12T10:13:56.181Z,7.63
2023-11-12T10:16:30.833Z,7.66
2023-11-12T10:19:15.802Z,7.68
2023-11-12T10:21:59.864Z,7.70
2023-11-12T10:24:29.511Z,7.75
2023-11-12T10:27:05.194Z,7.74
2023-11-12T10:29:32.674Z,7.73
2023-11-12T10:31:59.773Z,7.73
2023-11-12T10:34:28.894Z,7.70
2023-11-12T10:37:06.556Z,7.66
2023-11-12T10:40:19.878Z,7.61
2023-11-12T10:54:29.587Z,8.12
2023-11-12T10:56:56.881Z,8.26
2023-11-12T10:59:24.617Z,8.37
2023-11-12T11:01:53.225Z,8.49
2023-11-12T11:04:22.811Z,8.61
2023-11-12T11:06:49.944Z,8.73
2023-11-12T11:09:19.222Z,8.82
2023-11-12T11:11:50.414Z,8.87
2023-11-12T11:14:28.754Z,8.90
2023-11-12T11:16:55.824Z,8.94
2023-11-12T11:19:46.187Z,8.99
2023-11-12T11:22:32.559Z,8.97
2023-11-12T11:25:20.625Z,9.03
2023-11-12T11:27:48.240Z,9.14
2023-11-12T11:30:17.551Z,9.13
2023-11-12T11:32:58.811Z,9.02
2023-11-12T11:35:27.447Z,8.84
2023-11-12T11:38:11.269Z,8.73
2023-11-12T11:40:39.921Z,8.67
2023-11-12T11:43:22.687Z,8.70
2023-11-12T11:46:05.177Z,8.64
2023-11-12T11:48:48.253Z,8.59
2023-11-12T11:51:31.987Z,8.56
2023-11-12T11:54:04.880Z,8.54
2023-11-12T11:56:32.369Z,8.48
2023-11-12T11:58:59.644Z,8.45
2023-11-12T12:01:27.545Z,8.44
2023-11-12T12:04:11.157Z,8.45
2023-11-12T12:06:47.720Z,8.50
2023-11-12T12:09:18.727Z,8.52
2023-11-12T12:11:48.561Z,8.57
2023-11-12T12:14:17.628Z,8.58
2023-11-12T12:16:46.471Z,8.58
2023-11-12T12:19:20.767Z,8.61
2023-11-12T12:21:50.929Z,8.63
2023-11-12T12:24:20.573Z,8.60
2023-11-12T12:26:48.125Z,8.54
2023-11-12T12:29:17.267Z,8.51
2023-11-12T12:31:46.166Z,8.45
2023-11-12T12:34:16.421Z,8.39
2023-11-12T12:37:08.222Z,8.35
2023-11-12T12:39:52.346Z,8.34
2023-11-12T12:42:20.503Z,8.34
2023-11-12T12:44:49.656Z,8.32
2023-11-12T12:47:36.898Z,8.29
2023-11-12T12:50:26.999Z,8.25
2023-11-12T12:53:13.958Z,8.20
2023-11-12T12:55:42.424Z,8.16
2023-11-12T12:58:09.549Z,8.16
2023-11-12T13:00:37.392Z,8.15
2023-11-12T13:03:04.508Z,8.11
2023-11-12T13:05:33.096Z,8.07
2023-11-12T13:08:00.249Z,8.08
2023-11-12T13:10:28.138Z,8.09
2023-11-12T13:12:57.423Z,8.12
2023-11-12T13:15:26.787Z,8.19
2023-11-12T13:17:55.714Z,8.22
2023-11-12T13:20:26.717Z,8.23
2023-11-12T13:22:56.669Z,8.25
2023-11-12T13:25:24.407Z,8.26
2023-11-12T13:27:51.597Z,8.21
2023-11-12T13:30:20.707Z,8.18
2023-11-12T13:32:48.223Z,8.16
2023-11-12T13:35:15.553Z,8.14
2023-11-12T13:37:42.395Z,8.11
2023-11-12T13:40:15.060Z,8.04
2023-11-12T13:42:43.548Z,7.96
2023-11-12T13:45:27.904Z,7.88
2023-11-12T13:47:55.657Z,7.84
2023-11-12T13:50:27.434Z,7.80
2023-11-12T13:52:59.849Z,7.81
2023-11-12T13:55:29.259Z,7.82
2023-11-12T13:57:58.302Z,7.79
2023-11-12T14:00:31.850Z,7.81
2023-11-12T14:03:02.348Z,7.78
2023-11-12T14:05:29.816Z,7.75
2023-11-12T14:07:58.131Z,7.74
2023-11-12T14:10:26.455Z,7.74
2023-11-12T14:12:53.933Z,7.75
2023-11-12T14:15:23.668Z,7.76
2023-11-12T14:17:50.798Z,7.78
2023-11-12T14:20:22.611Z,7.79
2023-11-12T14:22:49.970Z,7.78
2023-11-12T14:25:20.535Z,7.78
2023-11-12T14:27:50.359Z,7.76
2023-11-12T14:30:19.648Z,7.76
2023-11-12T14:32:47.684Z,7.75
2023-11-12T14:35:17.823Z,7.74
2023-11-12T14:37:45.334Z,7.72
2023-11-12T14:40:13.479Z,7.71
2023-11-12T14:42:41.578Z,7.67
2023-11-12T14:45:21.139Z,7.62
2023-11-12T14:47:55.594Z,7.58
2023-11-12T14:50:23.130Z,7.55
2023-11-12T14:52:52.142Z,7.53
2023-11-12T14:55:25.288Z,7.51
2023-11-12T14:57:56.594Z,7.49
2023-11-12T15:00:29.687Z,7.46
2023-11-12T15:02:58.897Z,7.43
2023-11-12T15:05:26.913Z,7.42
2023-11-12T15:07:53.803Z,7.44
2023-11-12T15:10:22.257Z,7.43
2023-11-12T15:12:49.869Z,7.43
2023-11-12T15:15:20.390Z,7.43
2023-11-12T15:17:47.966Z,7.41
2023-11-12T15:20:16.011Z,7.36
2023-11-12T15:22:45.469Z,7.34
2023-11-12T15:25:15.044Z,7.31
2023-11-12T15:27:44.968Z,7.30
2023-11-12T15:30:13.856Z,7.30
2023-11-12T15:32:42.856Z,7.28
2023-11-12T15:35:11.317Z,7.25
2023-11-12T15:37:40.787Z,7.19
2023-11-12T15:40:19.711Z,7.14
2023-11-12T15:42:51.536Z,7.14
2023-11-12T15:45:19.784Z,7.14
2023-11-12T15:47:47.751Z,7.13
2023-11-12T15:50:15.953Z,7.11
2023-11-12T15:52:44.068Z,7.09
2023-11-12T15:55:14.246Z,7.04
2023-11-12T15:57:42.145Z,7.03
2023-11-12T16:00:14.643Z,7.04
2023-11-12T16:02:44.500Z,7.03
2023-11-12T16:05:12.568Z,7.00
2023-11-12T16:07:41.170Z,6.94
2023-11-12T16:10:11.693Z,6.91
2023-11-12T16:12:39.678Z,6.88
2023-11-12T16:15:13.618Z,6.86
2023-11-12T16:17:43.573Z,6.83
2023-11-12T16:20:13.579Z,6.81
2023-11-12T16:22:41.395Z,6.77
2023-11-12T16:25:10.178Z,6.77
2023-11-12T16:27:39.102Z,6.77
2023-11-12T16:30:09.045Z,6.78
2023-11-12T16:32:37.662Z,6.79
2023-11-12T16:35:08.541Z,6.78
2023-11-12T16:37:35.608Z,6.73
2023-11-12T16:40:02.746Z,6.65
2023-11-12T16:42:29.977Z,6.59
2023-11-12T16:44:57.925Z,6.53
2023-11-12T16:47:25.553Z,6.46
2023-11-12T16:49:59.516Z,6.36
2023-11-12T16:52:27.028Z,6.30
2023-11-12T16:54:56.041Z,6.27
2023-11-12T16:57:22.940Z,6.25
2023-11-12T16:59:49.994Z,6.27
2023-11-12T17:02:19.756Z,6.30
2023-11-12T17:04:46.767Z,6.31
2023-11-12T17:07:14.284Z,6.31
2023-11-12T17:09:43.064Z,6.33
2023-11-12T17:12:14.008Z,6.32
2023-11-12T17:14:41.931Z,6.30
2023-11-12T17:17:08.802Z,6.26
2023-11-12T17:19:36.656Z,6.30
2023-11-12T17:22:04.281Z,6.31
2023-11-12T17:24:33.300Z,6.32
2023-11-12T17:27:01.562Z,6.32
2023-11-12T17:29:28.714Z,6.30
2023-11-12T17:31:55.635Z,6.30
2023-11-12T17:34:22.709Z,6.31
2023-11-12T17:36:49.922Z,6.33
2023-11-12T17:39:17.210Z,6.37
2023-11-12T17:41:47.803Z,6.39
2023-11-12T17:44:17.195Z,6.38
2023-11-12T17:46:46.174Z,6.36
2023-11-12T17:49:13.954Z,6.34
2023-11-12T17:51:42.857Z,6.32
2023-11-12T17:54:10.460Z,6.29
2023-11-12T17:56:38.400Z,6.28
2023-11-12T17:59:06.270Z,6.27
2023-11-12T18:01:33.780Z,6.25
2023-11-12T18:04:01.236Z,6.22
2023-11-12T18:06:28.470Z,6.19
2023-11-12T18:08:55.385Z,6.17
2023-11-12T18:11:22.446Z,6.15
2023-11-12T18:13:49.574Z,6.14
2023-11-12T18:16:16.639Z,6.17
2023-11-12T18:18:43.984Z,6.19
2023-11-12T18:21:13.485Z,6.20
2023-11-12T18:23:41.559Z,6.17
2023-11-12T18:26:10.295Z,6.15
2023-11-12T18:28:38.740Z,6.13
2023-11-12T18:31:06.988Z,6.16
2023-11-12T18:33:34.301Z,6.18
2023-11-12T18:36:01.251Z,6.22
2023-11-12T18:38:28.800Z,6.25
2023-11-12T18:40:55.852Z,6.23
2023-11-12T18:43:26.147Z,6.19
2023-11-12T18:45:57.508Z,6.17
2023-11-12T18:48:25.486Z,6.16
2023-11-12T18:50:53.822Z,6.13
2023-11-12T18:53:22.653Z,6.16
2023-11-12T18:55:49.707Z,6.16
2023-11-12T18:58:19.357Z,6.16
2023-11-12T19:00:46.371Z,6.11
2023-11-12T19:03:14.192Z,6.09
2023-11-12T19:05:42.359Z,6.08
2023-11-12T19:08:14.664Z,6.08
2023-11-12T19:10:44.650Z,6.11
2023-11-12T19:13:12.310Z,6.14
2023-11-12T19:15:39.319Z,6.16
2023-11-12T19:18:07.987Z,6.17
2023-11-12T19:20:40.777Z,6.16
2023-11-12T19:23:08.196Z,6.11
2023-11-12T19:25:35.912Z,6.13
2023-11-12T19:28:06.455Z,6.14
2023-11-12T19:30:36.566Z,6.17
2023-11-12T19:33:03.913Z,6.18
2023-11-12T19:35:34.573Z,6.18
2023-11-12T19:38:06.487Z,6.17
2023-11-12T19:40:34.128Z,6.16
2023-11-12T19:43:01.073Z,6.14
2023-11-12T19:45:33.521Z,6.10
2023-11-12T19:48:00.599Z,6.10
2023-11-12T19:50:28.845Z,6.09
2023-11-12T19:52:56.394Z,6.08
2023-11-12T19:55:23.333Z,6.08
2023-11-12T19:57:56.274Z,6.06
2023-11-12T20:00:24.130Z,6.05
2023-11-12T20:02:52.112Z,6.03
2023-11-12T20:05:21.010Z,6.00
2023-11-12T20:07:48.106Z,5.95
2023-11-12T20:10:15.173Z,5.91
2023-11-12T20:12:42.250Z,5.86
2023-11-12T20:15:09.759Z,5.78
2023-11-12T20:17:37.815Z,5.68
2023-11-12T20:20:05.419Z,5.62
2023-11-12T20:22:33.690Z,5.57
2023-11-12T20:25:00.854Z,5.53
2023-11-12T20:27:28.002Z,5.44
2023-11-12T20:29:58.222Z,5.37
2023-11-12T20:32:25.579Z,5.25
2023-11-12T20:34:53.889Z,5.11
2023-11-12T20:37:21.219Z,4.99
2023-11-12T20:39:50.959Z,4.90
2023-11-12T20:42:18.052Z,4.83
2023-11-12T20:44:45.106Z,4.77
2023-11-12T20:47:13.821Z,4.67
2023-11-12T20:49:40.900Z,4.53
2023-11-12T20:52:09.806Z,4.41
2023-11-12T20:54:38.685Z,4.33
2023-11-12T20:57:07.859Z,4.24
2023-11-12T20:59:34.993Z,4.20
2023-11-12T21:02:10.288Z,4.20
2023-11-12T21:04:45.847Z,4.24
2023-11-12T21:07:14.388Z,4.30
2023-11-12T21:09:43.053Z,4.37
2023-11-12T21:12:10.676Z,4.40
2023-11-12T21:14:37.772Z,4.44
2023-11-12T21:17:05.187Z,4.47
2023-11-12T21:19:34.990Z,4.54
2023-11-12T21:22:02.374Z,4.62
2023-11-12T21:24:29.468Z,4.69
2023-11-12T21:26:57.805Z,4.75
2023-11-12T21:29:25.000Z,4.81
2023-11-12T21:31:54.656Z,4.84
2023-11-12T21:34:22.929Z,4.88
2023-11-12T21:36:51.376Z,4.93
2023-11-12T21:39:20.017Z,5.00
2023-11-12T21:41:47.924Z,5.06
2023-11-12T21:44:14.920Z,5.11
2023-11-12T21:46:43.811Z,5.15
2023-11-12T21:49:10.860Z,5.16
2023-11-12T21:51:38.523Z,5.18
2023-11-12T21:54:06.002Z,5.20
2023-11-12T21:56:32.927Z,5.25
2023-11-12T21:58:59.825Z,5.28
2023-11-12T22:01:26.825Z,5.30
2023-11-12T22:03:53.938Z,5.30
2023-11-12T22:06:20.964Z,5.31
2023-11-12T22:08:47.817Z,5.30
2023-11-12T22:11:14.743Z,5.31
2023-11-12T22:13:43.373Z,5.35
2023-11-12T22:16:10.324Z,5.38
2023-11-12T22:18:37.313Z,5.38
2023-11-12T22:21:07.123Z,5.39
2023-11-12T22:23:34.166Z,5.38
2023-11-12T22:26:01.087Z,5.39
2023-11-12T22:28:28.145Z,5.40
2023-11-12T22:30:55.032Z,5.42
2023-11-12T22:33:21.955Z,5.44
2023-11-12T22:35:48.914Z,5.44
2023-11-12T22:38:15.886Z,5.42
2023-11-12T22:40:44.331Z,5.41
2023-11-12T22:43:11.251Z,5.42
2023-11-12T22:45:38.986Z,5.43
2023-11-12T22:48:06.085Z,5.45
2023-11-12T22:50:33.328Z,5.47
2023-11-12T22:53:00.302Z,5.49
2023-11-12T22:55:27.267Z,5.50
2023-11-12T22:57:54.300Z,5.48
2023-11-12T23:00:40.764Z,5.47
2023-11-12T23:03:13.682Z,5.51
2023-11-12T23:05:42.229Z,5.54
2023-11-12T23:08:09.794Z,5.55
2023-11-12T23:10:37.553Z,5.59
2023-11-12T23:13:05.175Z,5.59
2023-11-12T23:15:32.650Z,5.57
2023-11-12T23:18:00.623Z,5.58
2023-11-12T23:20:27.644Z,5.60
2023-11-12T23:22:54.606Z,5.62
2023-11-12T23:25:21.662Z,5.64
2023-11-12T23:27:48.712Z,5.65
2023-11-12T23:30:15.725Z,5.64
2023-11-12T23:32:44.155Z,5.62
2023-11-12T23:35:12.084Z,5.62
2023-11-12T23:37:39.265Z,5.63
2023-11-12T23:40:08.539Z,5.66
2023-11-12T23:42:37.810Z,5.66
2023-11-12T23:45:07.001Z,5.66
2023-11-12T23:47:34.516Z,5.64
2023-11-12T23:50:01.944Z,5.60
2023-11-12T23:52:29.047Z,5.59
2023-11-12T23:54:55.987Z,5.60
2023-11-12T23:57:22.885Z,5.60
2023-11-12T23:59:49.787Z,5.65
